sensor_id;sensor_type;location;lat;lon;timestamp;pressure;altitude;pressure_sealevel;temperature;humidity
10464;BME280;5279;42.048;24.638;2023-04-25T00:02:13;96719.31;;;13.62;100.00
10464;BME280;5279;42.048;24.638;2023-04-25T00:04:40;96723.88;;;13.68;100.00
10464;BME280;5279;42.048;24.638;2023-04-25T00:07:07;96712.31;;;13.76;100.00
10464;BME280;5279;42.048;24.638;2023-04-25T00:09:34;96712.31;;;13.76;100.00
10464;BME280;5279;42.048;24.638;2023-04-25T00:12:01;96714.31;;;13.74;100.00
10464;BME280;5279;42.048;24.638;2023-04-25T00:14:30;96714.31;;;13.74;100.00
10464;BME280;5279;42.048;24.638;2023-04-25T00:16:59;96700.41;;;13.57;100.00
10464;BME280;5279;42.048;24.638;2023-04-25T00:19:26;96706.00;;;13.48;100.00
10464;BME280;5279;42.048;24.638;2023-04-25T00:21:54;96711.78;;;13.51;100.00
10464;BME280;5279;42.048;24.638;2023-04-25T00:24:21;96711.16;;;13.49;100.00
10464;BME280;5279;42.048;24.638;2023-04-25T00:26:48;96704.19;;;13.48;100.00
10464;BME280;5279;42.048;24.638;2023-04-25T00:29:17;96689.78;;;13.28;100.00
10464;BME280;5279;42.048;24.638;2023-04-25T00:31:46;96699.50;;;13.36;100.00
10464;BME280;5279;42.048;24.638;2023-04-25T00:34:13;96695.84;;;13.37;100.00
10464;BME280;5279;42.048;24.638;2023-04-25T00:36:41;96683.81;;;13.26;100.00
10464;BME280;5279;42.048;24.638;2023-04-25T00:39:08;96684.28;;;13.30;100.00
10464;BME280;5279;42.048;24.638;2023-04-25T00:41:35;96673.25;;;13.33;100.00
10464;BME280;5279;42.048;24.638;2023-04-25T00:44:04;96686.81;;;13.38;100.00
10464;BME280;5279;42.048;24.638;2023-04-25T00:46:32;96683.91;;;13.33;100.00
10464;BME280;5279;42.048;24.638;2023-04-25T00:49:01;96677.66;;;13.26;100.00
10464;BME280;5279;42.048;24.638;2023-04-25T00:51:28;96687.19;;;13.35;100.00
10464;BME280;5279;42.048;24.638;2023-04-25T00:53:55;96688.69;;;13.37;100.00
10464;BME280;5279;42.048;24.638;2023-04-25T00:56:23;96689.31;;;13.39;100.00
10464;BME280;5279;42.048;24.638;2023-04-25T00:58:53;96703.16;;;13.35;100.00
10464;BME280;5279;42.048;24.638;2023-04-25T01:01:22;96699.88;;;13.33;100.00
10464;BME280;5279;42.048;24.638;2023-04-25T01:03:49;96692.25;;;13.30;100.00
10464;BME280;5279;42.048;24.638;2023-04-25T01:06:18;96692.53;;;13.20;100.00
10464;BME280;5279;42.048;24.638;2023-04-25T01:08:45;96700.03;;;13.17;100.00
10464;BME280;5279;42.048;24.638;2023-04-25T01:11:12;96684.06;;;13.17;100.00
10464;BME280;5279;42.048;24.638;2023-04-25T01:13:39;96686.09;;;13.14;100.00
10464;BME280;5279;42.048;24.638;2023-04-25T01:16:06;96702.06;;;13.14;100.00
10464;BME280;5279;42.048;24.638;2023-04-25T01:18:35;96692.84;;;13.02;100.00
10464;BME280;5279;42.048;24.638;2023-04-25T01:21:07;96694.31;;;13.05;100.00
10464;BME280;5279;42.048;24.638;2023-04-25T01:23:35;96686.84;;;13.08;100.00
10464;BME280;5279;42.048;24.638;2023-04-25T01:26:03;96694.16;;;13.06;100.00
10464;BME280;5279;42.048;24.638;2023-04-25T01:28:30;96693.31;;;13.06;100.00
10464;BME280;5279;42.048;24.638;2023-04-25T01:30:59;96691.53;;;12.98;100.00
10464;BME280;5279;42.048;24.638;2023-04-25T01:33:26;96698.00;;;13.04;100.00
10464;BME280;5279;42.048;24.638;2023-04-25T01:35:53;96696.88;;;12.98;100.00
10464;BME280;5279;42.048;24.638;2023-04-25T01:38:22;96681.63;;;12.92;100.00
10464;BME280;5279;42.048;24.638;2023-04-25T01:40:51;96685.50;;;13.04;100.00
10464;BME280;5279;42.048;24.638;2023-04-25T01:43:18;96678.19;;;13.06;100.00
10464;BME280;5279;42.048;24.638;2023-04-25T01:45:51;96683.91;;;13.18;100.00
10464;BME280;5279;42.048;24.638;2023-04-25T01:48:18;96689.56;;;13.00;100.00
10464;BME280;5279;42.048;24.638;2023-04-25T01:50:46;96686.31;;;12.90;100.00
10464;BME280;5279;42.048;24.638;2023-04-25T01:53:13;96682.84;;;12.90;100.00
10464;BME280;5279;42.048;24.638;2023-04-25T01:55:45;96681.38;;;12.87;100.00
10464;BME280;5279;42.048;24.638;2023-04-25T01:58:12;96688.97;;;12.90;100.00
10464;BME280;5279;42.048;24.638;2023-04-25T02:00:39;96681.63;;;12.92;100.00
10464;BME280;5279;42.048;24.638;2023-04-25T02:03:07;96666.25;;;13.02;100.00
10464;BME280;5279;42.048;24.638;2023-04-25T02:05:35;96681.50;;;13.08;100.00
10464;BME280;5279;42.048;24.638;2023-04-25T02:08:04;96675.53;;;12.92;100.00
10464;BME280;5279;42.048;24.638;2023-04-25T02:10:31;96674.69;;;12.91;100.00
10464;BME280;5279;42.048;24.638;2023-04-25T02:13:00;96670.28;;;12.98;100.00
10464;BME280;5279;42.048;24.638;2023-04-25T02:15:27;96670.00;;;12.93;100.00
10464;BME280;5279;42.048;24.638;2023-04-25T02:17:54;96680.91;;;12.98;100.00
10464;BME280;5279;42.048;24.638;2023-04-25T02:20:22;96666.78;;;12.83;100.00
10464;BME280;5279;42.048;24.638;2023-04-25T02:22:49;96677.59;;;12.82;100.00
10464;BME280;5279;42.048;24.638;2023-04-25T02:25:17;96677.50;;;12.75;100.00
10464;BME280;5279;42.048;24.638;2023-04-25T02:27:45;96673.91;;;12.68;100.00
10464;BME280;5279;42.048;24.638;2023-04-25T02:30:14;96680.25;;;12.44;100.00
10464;BME280;5279;42.048;24.638;2023-04-25T02:32:41;96667.00;;;12.22;100.00
10464;BME280;5279;42.048;24.638;2023-04-25T02:35:10;96672.06;;;12.31;100.00
10464;BME280;5279;42.048;24.638;2023-04-25T02:37:39;96656.81;;;12.25;100.00
10464;BME280;5279;42.048;24.638;2023-04-25T02:40:07;96663.22;;;12.39;100.00
10464;BME280;5279;42.048;24.638;2023-04-25T02:42:35;96656.81;;;12.48;100.00
10464;BME280;5279;42.048;24.638;2023-04-25T02:45:02;96664.06;;;12.54;100.00
10464;BME280;5279;42.048;24.638;2023-04-25T02:47:31;96666.00;;;12.60;100.00
10464;BME280;5279;42.048;24.638;2023-04-25T02:49:58;96673.91;;;12.68;100.00
10464;BME280;5279;42.048;24.638;2023-04-25T02:52:25;96670.13;;;12.63;100.00
10464;BME280;5279;42.048;24.638;2023-04-25T02:54:52;96681.59;;;12.63;100.00
10464;BME280;5279;42.048;24.638;2023-04-25T02:57:19;96678.31;;;12.61;100.00
10464;BME280;5279;42.048;24.638;2023-04-25T02:59:46;96670.38;;;12.53;100.00
10464;BME280;5279;42.048;24.638;2023-04-25T03:02:13;96672.47;;;12.43;100.00
10464;BME280;5279;42.048;24.638;2023-04-25T03:04:42;96671.44;;;12.44;100.00
10464;BME280;5279;42.048;24.638;2023-04-25T03:07:10;96677.47;;;12.38;100.00
10464;BME280;5279;42.048;24.638;2023-04-25T03:09:38;96676.91;;;12.28;100.00
10464;BME280;5279;42.048;24.638;2023-04-25T03:15:26;96682.22;;;12.28;100.00
10464;BME280;5279;42.048;24.638;2023-04-25T03:17:53;96682.75;;;12.23;100.00
10464;BME280;5279;42.048;24.638;2023-04-25T03:20:21;96684.16;;;12.11;100.00
10464;BME280;5279;42.048;24.638;2023-04-25T03:22:48;96674.31;;;12.20;100.00
10464;BME280;5279;42.048;24.638;2023-04-25T03:25:16;96674.06;;;12.29;100.00
10464;BME280;5279;42.048;24.638;2023-04-25T03:27:43;96667.69;;;12.38;100.00
10464;BME280;5279;42.048;24.638;2023-04-25T03:30:10;96666.50;;;12.41;100.00
10464;BME280;5279;42.048;24.638;2023-04-25T03:32:37;96662.94;;;12.34;100.00
10464;BME280;5279;42.048;24.638;2023-04-25T03:35:05;96658.25;;;12.36;100.00
10464;BME280;5279;42.048;24.638;2023-04-25T03:37:34;96646.19;;;12.25;100.00
10464;BME280;5279;42.048;24.638;2023-04-25T03:40:01;96655.72;;;12.20;100.00
10464;BME280;5279;42.048;24.638;2023-04-25T03:42:28;96646.47;;;12.16;100.00
10464;BME280;5279;42.048;24.638;2023-04-25T03:44:55;96649.13;;;12.16;100.00
10464;BME280;5279;42.048;24.638;2023-04-25T03:47:37;96639.84;;;12.12;100.00
10464;BME280;5279;42.048;24.638;2023-04-25T03:50:05;96624.75;;;12.12;100.00
10464;BME280;5279;42.048;24.638;2023-04-25T03:52:34;96625.88;;;12.18;100.00
10464;BME280;5279;42.048;24.638;2023-04-25T03:55:01;96622.97;;;12.27;100.00
10464;BME280;5279;42.048;24.638;2023-04-25T03:57:27;96631.69;;;12.36;100.00
10464;BME280;5279;42.048;24.638;2023-04-25T03:59:55;96638.66;;;12.37;100.00
10464;BME280;5279;42.048;24.638;2023-04-25T04:02:22;96634.31;;;12.21;100.00
10464;BME280;5279;42.048;24.638;2023-04-25T04:04:49;96637.63;;;12.00;100.00
10464;BME280;5279;42.048;24.638;2023-04-25T04:07:16;96629.34;;;11.95;100.00
10464;BME280;5279;42.048;24.638;2023-04-25T04:09:44;96635.72;;;11.86;100.00
10464;BME280;5279;42.048;24.638;2023-04-25T04:12:11;96631.59;;;11.84;100.00
10464;BME280;5279;42.048;24.638;2023-04-25T04:14:38;96640.66;;;11.89;100.00
10464;BME280;5279;42.048;24.638;2023-04-25T04:17:05;96651.34;;;11.81;100.00
10464;BME280;5279;42.048;24.638;2023-04-25T04:19:32;96646.31;;;11.86;100.00
10464;BME280;5279;42.048;24.638;2023-04-25T04:21:59;96648.69;;;11.81;100.00
10464;BME280;5279;42.048;24.638;2023-04-25T04:24:27;96654.34;;;11.78;100.00
10464;BME280;5279;42.048;24.638;2023-04-25T04:26:55;96661.25;;;11.87;100.00
10464;BME280;5279;42.048;24.638;2023-04-25T04:29:23;96661.50;;;12.00;100.00
10464;BME280;5279;42.048;24.638;2023-04-25T04:31:50;96659.44;;;12.11;100.00
10464;BME280;5279;42.048;24.638;2023-04-25T04:34:18;96660.88;;;12.21;100.00
10464;BME280;5279;42.048;24.638;2023-04-25T04:36:45;96659.03;;;12.22;100.00
10464;BME280;5279;42.048;24.638;2023-04-25T04:39:12;96660.72;;;12.37;100.00
10464;BME280;5279;42.048;24.638;2023-04-25T04:41:39;96651.38;;;12.41;100.00
10464;BME280;5279;42.048;24.638;2023-04-25T04:44:08;96656.94;;;12.32;100.00
10464;BME280;5279;42.048;24.638;2023-04-25T04:46:35;96663.91;;;12.33;100.00
10464;BME280;5279;42.048;24.638;2023-04-25T04:49:07;96662.94;;;12.34;100.00
10464;BME280;5279;42.048;24.638;2023-04-25T04:51:34;96655.59;;;12.36;100.00
10464;BME280;5279;42.048;24.638;2023-04-25T04:54:02;96653.88;;;12.43;100.00
10464;BME280;5279;42.048;24.638;2023-04-25T04:56:29;96662.19;;;12.77;100.00
10464;BME280;5279;42.048;24.638;2023-04-25T04:58:56;96660.38;;;12.92;100.00
10464;BME280;5279;42.048;24.638;2023-04-25T05:01:26;96664.59;;;13.01;100.00
10464;BME280;5279;42.048;24.638;2023-04-25T05:03:53;96661.31;;;12.99;100.00
10464;BME280;5279;42.048;24.638;2023-04-25T05:06:25;96663.88;;;13.07;100.00
10464;BME280;5279;42.048;24.638;2023-04-25T05:08:52;96666.75;;;13.21;100.00
10464;BME280;5279;42.048;24.638;2023-04-25T05:11:19;96669.13;;;13.30;100.00
10464;BME280;5279;42.048;24.638;2023-04-25T05:13:46;96675.44;;;13.44;100.00
10464;BME280;5279;42.048;24.638;2023-04-25T05:16:13;96678.28;;;13.57;100.00
10464;BME280;5279;42.048;24.638;2023-04-25T05:18:41;96678.16;;;13.65;100.00
10464;BME280;5279;42.048;24.638;2023-04-25T05:21:08;96681.13;;;13.70;100.00
10464;BME280;5279;42.048;24.638;2023-04-25T05:23:35;96672.09;;;13.71;100.00
10464;BME280;5279;42.048;24.638;2023-04-25T05:26:02;96670.59;;;13.83;100.00
10464;BME280;5279;42.048;24.638;2023-04-25T05:28:29;96672.03;;;14.00;100.00
10464;BME280;5279;42.048;24.638;2023-04-25T05:30:56;96667.34;;;14.23;100.00
10464;BME280;5279;42.048;24.638;2023-04-25T05:33:23;96659.38;;;14.45;100.00
10464;BME280;5279;42.048;24.638;2023-04-25T05:35:52;96663.75;;;14.73;100.00
10464;BME280;5279;42.048;24.638;2023-04-25T05:38:19;96656.91;;;14.92;100.00
10464;BME280;5279;42.048;24.638;2023-04-25T05:40:45;96658.56;;;15.27;100.00
10464;BME280;5279;42.048;24.638;2023-04-25T05:43:12;96664.78;;;15.41;100.00
10464;BME280;5279;42.048;24.638;2023-04-25T05:45:39;96660.59;;;15.60;100.00
10464;BME280;5279;42.048;24.638;2023-04-25T05:48:06;96661.16;;;15.90;100.00
10464;BME280;5279;42.048;24.638;2023-04-25T05:50:33;96669.03;;;16.17;100.00
10464;BME280;5279;42.048;24.638;2023-04-25T05:53:02;96655.06;;;16.41;100.00
10464;BME280;5279;42.048;24.638;2023-04-25T05:55:31;96665.59;;;16.50;100.00
10464;BME280;5279;42.048;24.638;2023-04-25T05:57:58;96664.53;;;16.51;100.00
10464;BME280;5279;42.048;24.638;2023-04-25T06:00:25;96672.75;;;16.23;100.00
10464;BME280;5279;42.048;24.638;2023-04-25T06:02:52;96659.97;;;16.18;100.00
10464;BME280;5279;42.048;24.638;2023-04-25T06:05:19;96657.31;;;16.18;100.00
10464;BME280;5279;42.048;24.638;2023-04-25T06:07:46;96666.53;;;16.09;100.00
10464;BME280;5279;42.048;24.638;2023-04-25T06:10:14;96657.50;;;16.10;100.00
10464;BME280;5279;42.048;24.638;2023-04-25T06:12:41;96656.69;;;16.16;100.00
10464;BME280;5279;42.048;24.638;2023-04-25T06:15:09;96652.94;;;15.98;100.00
10464;BME280;5279;42.048;24.638;2023-04-25T06:17:36;96657.09;;;16.13;100.00
10464;BME280;5279;42.048;24.638;2023-04-25T06:20:04;96644.78;;;16.19;100.00
10464;BME280;5279;42.048;24.638;2023-04-25T06:22:31;96643.97;;;16.25;100.00
10464;BME280;5279;42.048;24.638;2023-04-25T06:24:58;96647.72;;;16.50;100.00
10464;BME280;5279;42.048;24.638;2023-04-25T06:27:27;96656.59;;;16.70;100.00
10464;BME280;5279;42.048;24.638;2023-04-25T06:29:53;96646.91;;;16.96;100.00
10464;BME280;5279;42.048;24.638;2023-04-25T06:32:20;96646.44;;;17.18;100.00
10464;BME280;5279;42.048;24.638;2023-04-25T06:34:47;96640.41;;;17.42;100.00
10464;BME280;5279;42.048;24.638;2023-04-25T06:37:14;96643.91;;;17.63;100.00
10464;BME280;5279;42.048;24.638;2023-04-25T06:39:41;96643.78;;;17.82;100.00
10464;BME280;5279;42.048;24.638;2023-04-25T06:42:08;96647.41;;;18.01;100.00
10464;BME280;5279;42.048;24.638;2023-04-25T06:44:36;96639.47;;;18.19;100.00
10464;BME280;5279;42.048;24.638;2023-04-25T06:47:03;96660.00;;;18.38;100.00
10464;BME280;5279;42.048;24.638;2023-04-25T06:49:30;96656.59;;;18.56;100.00
10464;BME280;5279;42.048;24.638;2023-04-25T06:51:57;96643.63;;;18.78;100.00
10464;BME280;5279;42.048;24.638;2023-04-25T06:54:24;96643.50;;;18.91;100.00
10464;BME280;5279;42.048;24.638;2023-04-25T06:56:52;96640.84;;;19.09;95.45
10464;BME280;5279;42.048;24.638;2023-04-25T06:59:19;96649.81;;;19.46;90.68
10464;BME280;5279;42.048;24.638;2023-04-25T07:01:47;96637.69;;;19.37;87.13
10464;BME280;5279;42.048;24.638;2023-04-25T07:04:14;96647.66;;;19.73;97.46
10464;BME280;5279;42.048;24.638;2023-04-25T07:06:41;96647.66;;;19.91;93.10
10464;BME280;5279;42.048;24.638;2023-04-25T07:09:08;96639.59;;;20.21;97.59
10464;BME280;5279;42.048;24.638;2023-04-25T07:11:36;96646.69;;;20.33;88.21
10464;BME280;5279;42.048;24.638;2023-04-25T07:14:03;96640.06;;;20.47;90.33
10464;BME280;5279;42.048;24.638;2023-04-25T07:16:29;96651.00;;;20.34;80.47
10464;BME280;5279;42.048;24.638;2023-04-25T07:18:58;96643.63;;;20.30;78.83
10464;BME280;5279;42.048;24.638;2023-04-25T07:21:25;96638.88;;;20.25;84.98
10464;BME280;5279;42.048;24.638;2023-04-25T07:23:52;96637.09;;;20.37;84.74
10464;BME280;5279;42.048;24.638;2023-04-25T07:26:19;96635.25;;;20.19;83.80
10464;BME280;5279;42.048;24.638;2023-04-25T07:28:46;96635.78;;;20.28;86.74
10464;BME280;5279;42.048;24.638;2023-04-25T07:31:16;96636.50;;;20.35;84.01
10464;BME280;5279;42.048;24.638;2023-04-25T07:33:43;96639.22;;;20.47;88.32
10464;BME280;5279;42.048;24.638;2023-04-25T07:36:12;96630.47;;;20.51;85.29
10464;BME280;5279;42.048;24.638;2023-04-25T07:38:40;96620.88;;;20.55;100.00
10464;BME280;5279;42.048;24.638;2023-04-25T07:41:07;96633.38;;;20.50;84.59
10464;BME280;5279;42.048;24.638;2023-04-25T07:43:34;96623.72;;;20.60;86.68
10464;BME280;5279;42.048;24.638;2023-04-25T07:46:01;96627.84;;;20.33;84.13
10464;BME280;5279;42.048;24.638;2023-04-25T07:48:28;96631.28;;;20.22;87.57
10464;BME280;5279;42.048;24.638;2023-04-25T07:50:55;96619.81;;;20.45;88.09
10464;BME280;5279;42.048;24.638;2023-04-25T07:53:23;96620.63;;;20.45;85.20
10464;BME280;5279;42.048;24.638;2023-04-25T07:55:50;96613.22;;;20.82;84.37
10464;BME280;5279;42.048;24.638;2023-04-25T07:58:17;96604.53;;;20.92;86.00
10464;BME280;5279;42.048;24.638;2023-04-25T08:00:46;96612.72;;;21.43;75.96
10464;BME280;5279;42.048;24.638;2023-04-25T08:03:13;96624.84;;;21.80;75.08
10464;BME280;5279;42.048;24.638;2023-04-25T08:05:40;96628.03;;;22.46;72.83
10464;BME280;5279;42.048;24.638;2023-04-25T08:08:07;96610.56;;;22.81;74.59
10464;BME280;5279;42.048;24.638;2023-04-25T08:10:35;96620.47;;;23.09;68.54
10464;BME280;5279;42.048;24.638;2023-04-25T08:13:02;96607.81;;;22.76;72.19
10464;BME280;5279;42.048;24.638;2023-04-25T08:15:29;96621.78;;;22.90;64.61
10464;BME280;5279;42.048;24.638;2023-04-25T08:17:56;96619.22;;;23.17;66.88
10464;BME280;5279;42.048;24.638;2023-04-25T08:20:23;96619.38;;;23.27;64.64
10464;BME280;5279;42.048;24.638;2023-04-25T08:22:50;96620.47;;;23.09;62.15
10464;BME280;5279;42.048;24.638;2023-04-25T08:25:17;96620.56;;;22.98;62.85
10464;BME280;5279;42.048;24.638;2023-04-25T08:27:45;96631.91;;;22.21;67.65
10464;BME280;5279;42.048;24.638;2023-04-25T08:30:12;96626.28;;;21.71;74.95
10464;BME280;5279;42.048;24.638;2023-04-25T08:32:39;96632.06;;;20.94;81.32
10464;BME280;5279;42.048;24.638;2023-04-25T08:35:07;96631.53;;;20.62;81.93
10464;BME280;5279;42.048;24.638;2023-04-25T08:37:34;96638.97;;;20.18;88.46
10464;BME280;5279;42.048;24.638;2023-04-25T08:40:02;96627.69;;;19.98;97.57
10464;BME280;5279;42.048;24.638;2023-04-25T08:42:33;96644.59;;;19.87;100.00
10464;BME280;5279;42.048;24.638;2023-04-25T08:45:03;96642.91;;;19.32;100.00
10464;BME280;5279;42.048;24.638;2023-04-25T08:47:32;96656.09;;;19.15;100.00
10464;BME280;5279;42.048;24.638;2023-04-25T08:50:00;96651.34;;;19.17;100.00
10464;BME280;5279;42.048;24.638;2023-04-25T08:52:36;96652.69;;;19.26;100.00
10464;BME280;5279;42.048;24.638;2023-04-25T08:55:04;96640.94;;;19.82;100.00
10464;BME280;5279;42.048;24.638;2023-04-25T08:57:34;96638.22;;;20.59;100.00
10464;BME280;5279;42.048;24.638;2023-04-25T09:00:03;96644.00;;;20.86;99.72
10464;BME280;5279;42.048;24.638;2023-04-25T09:02:31;96648.22;;;20.94;100.00
10464;BME280;5279;42.048;24.638;2023-04-25T09:04:59;96651.47;;;20.73;100.00
10464;BME280;5279;42.048;24.638;2023-04-25T09:07:26;96661.41;;;20.60;100.00
10464;BME280;5279;42.048;24.638;2023-04-25T09:09:53;96642.69;;;20.06;100.00
10464;BME280;5279;42.048;24.638;2023-04-25T09:12:21;96654.72;;;19.85;100.00
10464;BME280;5279;42.048;24.638;2023-04-25T09:15:04;96653.94;;;19.67;100.00
10464;BME280;5279;42.048;24.638;2023-04-25T09:17:31;96645.88;;;19.48;100.00
10464;BME280;5279;42.048;24.638;2023-04-25T09:20:06;96648.56;;;19.67;100.00
10464;BME280;5279;42.048;24.638;2023-04-25T09:22:34;96647.50;;;19.86;100.00
10464;BME280;5279;42.048;24.638;2023-04-25T09:25:02;96643.84;;;20.28;100.00
10464;BME280;5279;42.048;24.638;2023-04-25T09:27:31;96639.31;;;20.70;100.00
10464;BME280;5279;42.048;24.638;2023-04-25T09:29:59;96645.75;;;21.04;100.00
10464;BME280;5279;42.048;24.638;2023-04-25T09:32:28;96644.16;;;21.26;90.86
10464;BME280;5279;42.048;24.638;2023-04-25T09:34:56;96633.84;;;21.23;89.87
10464;BME280;5279;42.048;24.638;2023-04-25T09:37:24;96632.81;;;21.24;94.54
10464;BME280;5279;42.048;24.638;2023-04-25T09:39:53;96639.69;;;20.97;86.89
10464;BME280;5279;42.048;24.638;2023-04-25T09:42:22;96637.88;;;20.67;90.40
10464;BME280;5279;42.048;24.638;2023-04-25T09:44:52;96636.78;;;20.45;91.32
10464;BME280;5279;42.048;24.638;2023-04-25T09:47:19;96633.06;;;19.98;89.57
10464;BME280;5279;42.048;24.638;2023-04-25T09:49:50;96621.25;;;19.70;97.98
10464;BME280;5279;42.048;24.638;2023-04-25T09:52:19;96624.66;;;19.58;100.00
10464;BME280;5279;42.048;24.638;2023-04-25T09:54:46;96621.56;;;19.37;100.00
10464;BME280;5279;42.048;24.638;2023-04-25T09:57:15;96618.31;;;19.71;100.00
10464;BME280;5279;42.048;24.638;2023-04-25T09:59:46;96614.25;;;20.28;96.21
10464;BME280;5279;42.048;24.638;2023-04-25T10:02:15;96605.72;;;20.96;91.44
10464;BME280;5279;42.048;24.638;2023-04-25T10:04:44;96611.81;;;21.38;84.21
10464;BME280;5279;42.048;24.638;2023-04-25T10:07:15;96599.47;;;22.05;80.16
10464;BME280;5279;42.048;24.638;2023-04-25T10:09:47;96588.78;;;23.05;70.52
10464;BME280;5279;42.048;24.638;2023-04-25T10:12:16;96579.81;;;23.59;63.21
10464;BME280;5279;42.048;24.638;2023-04-25T10:14:44;96573.31;;;24.25;58.88
10464;BME280;5279;42.048;24.638;2023-04-25T10:17:12;96567.41;;;24.92;53.55
10464;BME280;5279;42.048;24.638;2023-04-25T10:19:39;96552.63;;;25.10;54.40
10464;BME280;5279;42.048;24.638;2023-04-25T10:22:08;96555.63;;;25.60;51.02
10464;BME280;5279;42.048;24.638;2023-04-25T10:24:55;96543.38;;;26.20;52.33
10464;BME280;5279;42.048;24.638;2023-04-25T10:27:23;96531.44;;;26.56;45.28
10464;BME280;5279;42.048;24.638;2023-04-25T10:30:00;96522.75;;;26.74;46.18
10464;BME280;5279;42.048;24.638;2023-04-25T10:32:27;96518.91;;;26.45;45.12
10464;BME280;5279;42.048;24.638;2023-04-25T10:34:54;96512.91;;;26.13;45.56
10464;BME280;5279;42.048;24.638;2023-04-25T10:37:21;96516.97;;;26.05;44.50
10464;BME280;5279;42.048;24.638;2023-04-25T10:39:48;96509.69;;;26.56;46.39
10464;BME280;5279;42.048;24.638;2023-04-25T10:42:17;96502.09;;;26.68;40.42
10464;BME280;5279;42.048;24.638;2023-04-25T10:45:00;96501.34;;;27.62;41.07
10464;BME280;5279;42.048;24.638;2023-04-25T10:47:34;96488.53;;;28.16;41.48
10464;BME280;5279;42.048;24.638;2023-04-25T10:50:08;96467.00;;;27.71;39.79
10464;BME280;5279;42.048;24.638;2023-04-25T10:52:35;96482.31;;;28.11;40.12
10464;BME280;5279;42.048;24.638;2023-04-25T10:55:06;96479.34;;;28.07;40.32
10464;BME280;5279;42.048;24.638;2023-04-25T10:57:39;96466.81;;;28.06;38.63
10464;BME280;5279;42.048;24.638;2023-04-25T11:00:12;96466.88;;;28.64;37.84
10464;BME280;5279;42.048;24.638;2023-04-25T11:02:48;96465.69;;;28.80;34.25
10464;BME280;5279;42.048;24.638;2023-04-25T11:05:26;96469.09;;;28.62;36.35
10464;BME280;5279;42.048;24.638;2023-04-25T11:07:56;96470.66;;;27.95;36.80
10464;BME280;5279;42.048;24.638;2023-04-25T11:10:25;96457.50;;;26.69;39.42
10464;BME280;5279;42.048;24.638;2023-04-25T11:12:54;96465.31;;;25.70;41.03
10464;BME280;5279;42.048;24.638;2023-04-25T11:15:21;96464.19;;;24.98;44.25
10464;BME280;5279;42.048;24.638;2023-04-25T11:17:48;96464.25;;;24.35;48.89
10464;BME280;5279;42.048;24.638;2023-04-25T11:20:15;96472.06;;;24.00;47.71
10464;BME280;5279;42.048;24.638;2023-04-25T11:22:44;96459.91;;;23.75;51.05
10464;BME280;5279;42.048;24.638;2023-04-25T11:25:14;96457.44;;;23.47;51.50
10464;BME280;5279;42.048;24.638;2023-04-25T11:27:50;96454.03;;;23.35;50.79
10464;BME280;5279;42.048;24.638;2023-04-25T11:30:19;96456.25;;;23.16;51.21
10464;BME280;5279;42.048;24.638;2023-04-25T11:32:47;96462.47;;;23.60;48.77
10464;BME280;5279;42.048;24.638;2023-04-25T11:35:14;96448.13;;;24.50;46.43
10464;BME280;5279;42.048;24.638;2023-04-25T11:37:41;96445.38;;;25.34;48.37
10464;BME280;5279;42.048;24.638;2023-04-25T11:40:09;96436.59;;;25.89;42.12
10464;BME280;5279;42.048;24.638;2023-04-25T11:42:37;96426.56;;;26.30;41.58
10464;BME280;5279;42.048;24.638;2023-04-25T11:45:05;96421.91;;;26.81;39.38
10464;BME280;5279;42.048;24.638;2023-04-25T11:47:34;96427.53;;;27.09;38.75
10464;BME280;5279;42.048;24.638;2023-04-25T11:50:02;96414.59;;;27.40;38.40
10464;BME280;5279;42.048;24.638;2023-04-25T11:52:40;96417.13;;;27.76;37.14
10464;BME280;5279;42.048;24.638;2023-04-25T11:55:08;96413.47;;;27.95;38.09
10464;BME280;5279;42.048;24.638;2023-04-25T11:57:37;96406.56;;;27.74;37.78
10464;BME280;5279;42.048;24.638;2023-04-25T12:00:11;96405.44;;;27.26;35.84
10464;BME280;5279;42.048;24.638;2023-04-25T12:02:44;96398.19;;;26.96;38.18
10464;BME280;5279;42.048;24.638;2023-04-25T12:05:12;96381.78;;;27.22;38.99
10464;BME280;5279;42.048;24.638;2023-04-25T12:07:40;96379.56;;;27.29;37.20
10464;BME280;5279;42.048;24.638;2023-04-25T12:10:09;96368.66;;;27.39;36.93
10464;BME280;5279;42.048;24.638;2023-04-25T12:12:38;96357.34;;;27.11;36.57
10464;BME280;5279;42.048;24.638;2023-04-25T12:15:12;96358.44;;;27.10;36.60
10464;BME280;5279;42.048;24.638;2023-04-25T12:17:44;96356.28;;;27.07;36.69
10464;BME280;5279;42.048;24.638;2023-04-25T12:20:13;96353.34;;;26.99;38.92
10464;BME280;5279;42.048;24.638;2023-04-25T12:22:41;96351.47;;;26.89;38.60
10464;BME280;5279;42.048;24.638;2023-04-25T12:25:10;96349.25;;;26.96;37.55
10464;BME280;5279;42.048;24.638;2023-04-25T12:27:38;96360.47;;;26.80;36.38
10464;BME280;5279;42.048;24.638;2023-04-25T12:30:09;96362.13;;;26.60;39.05
10464;BME280;5279;42.048;24.638;2023-04-25T12:32:37;96362.91;;;26.86;37.83
10464;BME280;5279;42.048;24.638;2023-04-25T12:35:06;96364.31;;;26.58;37.46
10464;BME280;5279;42.048;24.638;2023-04-25T12:37:33;96358.59;;;26.65;38.58
10464;BME280;5279;42.048;24.638;2023-04-25T12:40:00;96362.94;;;26.71;37.98
10464;BME280;5279;42.048;24.638;2023-04-25T12:42:29;96367.84;;;26.54;39.64
10464;BME280;5279;42.048;24.638;2023-04-25T12:44:56;96350.44;;;26.80;39.27
10464;BME280;5279;42.048;24.638;2023-04-25T12:47:22;96366.25;;;26.53;40.17
10464;BME280;5279;42.048;24.638;2023-04-25T12:49:49;96367.94;;;26.19;38.34
10464;BME280;5279;42.048;24.638;2023-04-25T12:52:18;96366.00;;;25.59;39.29
10464;BME280;5279;42.048;24.638;2023-04-25T12:54:45;96362.00;;;24.99;41.13
10464;BME280;5279;42.048;24.638;2023-04-25T12:57:12;96356.94;;;24.66;44.44
10464;BME280;5279;42.048;24.638;2023-04-25T12:59:39;96359.09;;;24.17;45.68
10464;BME280;5279;42.048;24.638;2023-04-25T13:02:05;96357.09;;;23.70;48.76
10464;BME280;5279;42.048;24.638;2023-04-25T13:04:32;96358.25;;;23.26;48.85